createdAt,value
2017-12-01T04:41:31.311Z,5.73
2017-12-01T04:43:58.070Z,6.70
2017-12-01T04:46:24.835Z,6.90
2017-12-01T04:48:51.662Z,8.23
2017-12-01T04:51:18.454Z,7.77
2017-12-01T04:53:45.237Z,6.83
2017-12-01T04:56:12.929Z,6.83
2017-12-01T04:58:39.733Z,7.67
2017-12-01T05:01:06.500Z,6.90
2017-12-01T05:03:33.342Z,6.80
2017-12-01T05:06:00.119Z,6.97
2017-12-01T05:08:26.905Z,8.20
2017-12-01T05:10:53.726Z,6.80
2017-12-01T05:13:20.502Z,7.07
2017-12-01T05:15:47.322Z,7.60
2017-12-01T05:18:14.153Z,6.37
2017-12-01T05:20:40.938Z,7.97
2017-12-01T05:23:07.722Z,7.77
2017-12-01T05:25:34.529Z,6.07
2017-12-01T05:28:01.313Z,7.00
2017-12-01T05:30:28.093Z,5.67
2017-12-01T05:32:54.905Z,8.43
2017-12-01T05:35:21.678Z,7.50
2017-12-01T05:37:48.490Z,5.47
2017-12-01T05:40:15.291Z,8.03
2017-12-01T05:42:42.077Z,8.10
2017-12-01T05:45:08.846Z,8.27
2017-12-01T05:47:35.654Z,6.83
2017-12-01T05:50:02.414Z,6.67
2017-12-01T05:52:29.178Z,6.00
2017-12-01T05:54:56.010Z,5.83
2017-12-01T05:57:22.814Z,4.30
2017-12-01T05:59:49.590Z,4.33
2017-12-01T06:02:16.406Z,4.50
2017-12-01T06:04:43.183Z,5.63
2017-12-01T06:07:09.982Z,4.90
2017-12-01T06:09:36.825Z,5.23
2017-12-01T06:12:03.576Z,5.80
2017-12-01T06:14:30.326Z,6.77
2017-12-01T06:16:57.122Z,5.80
2017-12-01T06:19:23.905Z,6.50
2017-12-01T06:21:50.698Z,4.77
2017-12-01T06:24:17.508Z,4.97
2017-12-01T06:26:44.307Z,5.03
2017-12-01T06:29:11.089Z,5.60
2017-12-01T06:31:37.914Z,5.67
2017-12-01T06:34:04.691Z,6.47
2017-12-01T06:36:31.484Z,5.40
2017-12-01T06:38:58.286Z,6.50
2017-12-01T06:41:25.077Z,8.17
2017-12-01T06:43:51.839Z,4.93
2017-12-01T06:46:18.635Z,7.50
2017-12-01T06:48:45.402Z,6.70
2017-12-01T06:51:12.211Z,5.57
2017-12-01T06:53:39.041Z,7.53
2017-12-01T06:56:05.833Z,8.30
2017-12-01T06:58:32.613Z,7.30
2017-12-01T07:00:59.538Z,7.90
2017-12-01T07:03:26.337Z,8.53
2017-12-01T07:05:53.110Z,8.90
2017-12-01T07:08:19.944Z,8.70
2017-12-01T07:10:46.682Z,7.17
2017-12-01T07:13:13.449Z,8.37
2017-12-01T07:15:40.238Z,8.13
2017-12-01T07:18:06.971Z,9.90
2017-12-01T07:20:33.733Z,8.93
2017-12-01T07:23:00.525Z,7.97
2017-12-01T07:25:27.279Z,7.50
2017-12-01T07:27:54.057Z,7.33
2017-12-01T07:30:20.842Z,7.63
2017-12-01T07:32:47.583Z,10.50
2017-12-01T07:35:14.327Z,7.70
2017-12-01T07:37:41.163Z,8.70
2017-12-01T07:40:07.969Z,10.13
2017-12-01T07:42:34.753Z,8.60
2017-12-01T07:45:18.029Z,7.80
2017-12-01T07:47:45.385Z,8.80
2017-12-01T07:50:12.205Z,7.53
2017-12-01T07:52:39.043Z,6.70
2017-12-01T07:55:05.855Z,7.23
2017-12-01T07:57:32.623Z,6.70
2017-12-01T07:59:59.464Z,7.40
2017-12-01T08:02:26.266Z,7.57
2017-12-01T08:04:53.085Z,7.03
2017-12-01T08:07:19.911Z,6.40
2017-12-01T08:09:46.714Z,6.50
2017-12-01T08:12:13.514Z,5.33
2017-12-01T08:14:40.332Z,6.60
2017-12-01T08:17:12.866Z,7.27
2017-12-01T08:19:39.709Z,7.00
2017-12-01T08:22:12.328Z,6.77
2017-12-01T08:24:54.860Z,7.87
2017-12-01T08:27:21.685Z,6.67
2017-12-01T08:29:48.488Z,7.67
2017-12-01T08:32:15.263Z,9.50
2017-12-01T08:34:42.067Z,8.40
2017-12-01T08:37:08.838Z,7.20
2017-12-01T08:39:35.581Z,7.70
2017-12-01T08:42:02.382Z,7.60
2017-12-01T08:44:29.131Z,5.77
2017-12-01T08:46:55.892Z,6.80
2017-12-01T08:49:22.682Z,6.50
2017-12-01T08:51:49.446Z,5.70
2017-12-01T08:54:16.253Z,5.97
2017-12-01T08:56:43.059Z,6.40
2017-12-01T08:59:09.834Z,5.10
2017-12-01T09:01:36.601Z,6.47
2017-12-01T09:04:03.418Z,6.17
2017-12-01T09:06:30.223Z,5.20
2017-12-01T09:08:57.000Z,6.30
2017-12-01T09:11:23.818Z,6.60
2017-12-01T09:13:50.586Z,5.80
2017-12-01T09:16:17.401Z,8.53
2017-12-01T09:18:44.222Z,7.80
2017-12-01T09:21:11.006Z,7.50
2017-12-01T09:23:37.779Z,5.63
2017-12-01T09:26:04.595Z,5.40
2017-12-01T09:28:32.280Z,5.30
2017-12-01T09:30:59.054Z,7.00
2017-12-01T09:33:25.870Z,5.90
2017-12-01T09:35:52.645Z,5.70
2017-12-01T09:38:19.438Z,6.40
2017-12-01T09:40:46.228Z,5.87
2017-12-01T09:43:13.169Z,5.60
2017-12-01T09:45:40.007Z,5.67
2017-12-01T09:48:06.849Z,5.60
2017-12-01T09:50:33.624Z,5.70
2017-12-01T09:53:00.440Z,4.47
2017-12-01T09:55:27.247Z,5.17
2017-12-01T09:57:54.033Z,5.40
2017-12-01T10:00:20.826Z,5.23
2017-12-01T10:02:47.627Z,5.30
2017-12-01T10:05:14.382Z,5.63
2017-12-01T10:07:41.152Z,4.93
2017-12-01T10:10:07.930Z,5.60
2017-12-01T10:12:34.709Z,7.00
2017-12-01T10:15:01.500Z,6.67
2017-12-01T10:17:28.318Z,6.80
2017-12-01T10:19:55.081Z,5.97
2017-12-01T10:22:21.842Z,5.60
2017-12-01T10:24:48.671Z,5.27
2017-12-01T10:27:15.461Z,5.73
2017-12-01T10:29:42.193Z,5.00
2017-12-01T10:32:09.002Z,7.03
2017-12-01T10:34:35.742Z,6.30
2017-12-01T10:37:02.530Z,7.27
2017-12-01T10:39:29.307Z,5.20
2017-12-01T10:41:56.066Z,5.10
2017-12-01T10:44:22.829Z,3.93
2017-12-01T10:46:49.642Z,4.00
2017-12-01T10:49:16.413Z,4.83
2017-12-01T10:51:43.194Z,2.70
2017-12-01T10:54:10.007Z,3.97
2017-12-01T10:56:36.767Z,3.53
2017-12-01T10:59:03.508Z,4.00
2017-12-01T11:01:30.288Z,4.80
2017-12-01T11:03:57.057Z,3.43
2017-12-01T11:06:23.802Z,3.60
2017-12-01T11:08:50.579Z,3.60
2017-12-01T11:11:17.342Z,4.10
2017-12-01T11:13:44.091Z,3.30
2017-12-01T11:16:10.908Z,3.70
2017-12-01T11:18:37.654Z,4.40
2017-12-01T11:21:04.394Z,3.80
2017-12-01T11:23:31.174Z,4.60
2017-12-01T11:25:57.921Z,4.30
2017-12-01T11:28:24.687Z,3.60
2017-12-01T11:30:51.485Z,4.47
2017-12-01T11:33:18.260Z,4.57
2017-12-01T11:35:45.039Z,4.33
2017-12-01T11:38:11.841Z,3.47
2017-12-01T11:40:38.595Z,4.30
2017-12-01T11:43:05.335Z,5.10
2017-12-01T11:45:32.144Z,4.67
2017-12-01T11:47:58.897Z,5.87
2017-12-01T11:50:25.631Z,3.90
2017-12-01T11:52:52.441Z,3.50
2017-12-01T11:55:19.183Z,4.50
2017-12-01T11:57:45.967Z,3.37
2017-12-01T12:00:12.779Z,4.60
2017-12-01T12:02:39.573Z,3.63
2017-12-01T12:05:06.343Z,4.60
2017-12-01T12:07:33.154Z,3.47
2017-12-01T12:09:59.898Z,3.70
2017-12-01T12:12:26.691Z,4.50
2017-12-01T12:14:53.516Z,4.70
2017-12-01T12:17:20.289Z,3.83
2017-12-01T12:19:47.055Z,4.47
2017-12-01T12:22:13.921Z,4.27
2017-12-01T12:24:40.758Z,2.77
2017-12-01T12:27:07.554Z,3.63
2017-12-01T12:29:34.379Z,4.23
2017-12-01T12:32:01.189Z,2.67
2017-12-01T12:34:27.986Z,2.97
2017-12-01T12:36:54.789Z,2.73
2017-12-01T12:39:21.585Z,2.93
2017-12-01T12:41:48.351Z,2.73
2017-12-01T12:44:15.221Z,3.00
2017-12-01T12:46:42.062Z,3.40
2017-12-01T12:49:08.907Z,3.13
2017-12-01T12:51:35.738Z,3.50
2017-12-01T12:54:02.569Z,3.20
2017-12-01T12:56:29.383Z,3.50
2017-12-01T12:58:56.229Z,3.17
2017-12-01T13:01:23.041Z,3.10
2017-12-01T13:03:49.869Z,3.37
2017-12-01T13:06:16.686Z,3.10
2017-12-01T13:08:43.496Z,2.33
2017-12-01T13:11:10.298Z,3.10
2017-12-01T13:13:37.132Z,2.77
2017-12-01T13:16:03.949Z,2.93
2017-12-01T13:18:30.722Z,3.30
2017-12-01T13:20:57.539Z,3.10
2017-12-01T13:23:24.299Z,3.03
2017-12-01T13:25:51.077Z,2.10
2017-12-01T13:28:17.919Z,2.70
2017-12-01T13:30:44.747Z,2.90
2017-12-01T13:33:11.538Z,2.03
2017-12-01T13:35:38.368Z,2.07
2017-12-01T13:38:05.166Z,2.60
2017-12-01T13:40:31.909Z,3.07
2017-12-01T13:42:58.707Z,2.80
2017-12-01T13:45:25.520Z,2.57
2017-12-01T13:47:53.140Z,2.80
2017-12-01T13:50:20.001Z,2.73
2017-12-01T13:52:46.817Z,2.83
2017-12-01T13:55:13.636Z,2.97
2017-12-01T13:57:40.501Z,2.10
2017-12-01T14:00:07.284Z,2.87
2017-12-01T14:02:34.055Z,2.63
2017-12-01T14:05:00.887Z,2.50
2017-12-01T14:07:27.703Z,3.00
2017-12-01T14:09:54.470Z,2.57
2017-12-01T14:12:21.245Z,1.97
2017-12-01T14:14:48.009Z,3.17
2017-12-01T14:17:14.791Z,3.03
2017-12-01T14:19:41.591Z,3.57
2017-12-01T14:22:08.331Z,3.73
2017-12-01T14:24:35.111Z,3.70
2017-12-01T14:27:01.887Z,3.73
2017-12-01T14:29:28.697Z,4.60
2017-12-01T14:31:55.451Z,3.77
2017-12-01T14:34:22.265Z,3.13
2017-12-01T14:36:49.029Z,2.73
2017-12-01T14:39:15.794Z,2.90
2017-12-01T14:41:42.583Z,3.20
2017-12-01T14:44:09.345Z,2.90
2017-12-01T14:46:36.087Z,2.93
2017-12-01T14:49:02.928Z,3.20
2017-12-01T14:51:29.685Z,4.10
2017-12-01T14:53:56.440Z,3.10
2017-12-01T14:56:23.219Z,4.27
2017-12-01T14:58:50.010Z,5.07
2017-12-01T15:01:16.781Z,4.07
2017-12-01T15:03:43.565Z,5.50
2017-12-01T15:06:10.309Z,5.27
2017-12-01T15:08:37.077Z,5.00
2017-12-01T15:11:03.871Z,5.90
2017-12-01T15:13:30.646Z,5.70
2017-12-01T15:15:57.408Z,8.47
2017-12-01T15:18:24.202Z,5.70
2017-12-01T15:20:50.948Z,4.03
2017-12-01T15:23:17.689Z,4.10
2017-12-01T15:25:44.486Z,4.00
2017-12-01T15:28:11.214Z,3.73
2017-12-01T15:30:37.961Z,4.13
2017-12-01T15:33:04.754Z,4.70
2017-12-01T15:35:31.496Z,5.13
2017-12-01T15:37:58.266Z,5.33
2017-12-01T15:40:25.106Z,5.23
2017-12-01T15:42:51.887Z,5.57
2017-12-01T15:45:18.658Z,6.30
2017-12-01T15:47:45.483Z,4.23
2017-12-01T15:50:12.289Z,4.77
2017-12-01T15:52:39.102Z,4.47
2017-12-01T15:55:05.926Z,4.90
2017-12-01T15:57:32.764Z,4.83
2017-12-01T15:59:59.569Z,4.27
2017-12-01T16:02:26.411Z,5.80
2017-12-01T16:04:53.234Z,5.83
2017-12-01T16:07:20.019Z,4.77
2017-12-01T16:09:46.850Z,5.60
2017-12-01T16:12:13.645Z,5.60
2017-12-01T16:14:40.436Z,6.70
2017-12-01T16:17:07.247Z,5.90
2017-12-01T16:19:34.155Z,5.10
2017-12-01T16:22:00.937Z,4.87
2017-12-01T16:24:27.781Z,4.80
2017-12-01T16:26:54.562Z,5.70
2017-12-01T16:29:21.350Z,5.00
2017-12-01T16:31:48.168Z,5.03
2017-12-01T16:34:14.942Z,5.80
2017-12-01T16:36:41.731Z,5.80
2017-12-01T16:39:08.572Z,6.70
2017-12-01T16:41:35.357Z,5.20
2017-12-01T16:44:02.140Z,6.53
2017-12-01T16:46:28.931Z,5.93
2017-12-01T16:48:55.750Z,6.33
2017-12-01T16:51:22.530Z,8.80
2017-12-01T16:53:49.351Z,9.40
2017-12-01T16:56:16.210Z,7.87
2017-12-01T16:58:43.065Z,9.30
2017-12-01T17:01:09.887Z,9.83
2017-12-01T17:03:36.709Z,9.63
2017-12-01T17:06:03.493Z,8.57
2017-12-01T17:08:30.353Z,9.77
2017-12-01T17:10:57.146Z,8.87
2017-12-01T17:13:23.965Z,10.87
2017-12-01T17:15:50.778Z,9.53
2017-12-01T17:18:17.565Z,8.03
2017-12-01T17:20:44.356Z,5.43
2017-12-01T17:23:11.146Z,5.20
2017-12-01T17:25:37.914Z,4.03
2017-12-01T17:28:04.695Z,3.40
2017-12-01T17:30:31.495Z,2.20
2017-12-01T17:32:58.325Z,3.00
2017-12-01T17:35:25.102Z,2.03
2017-12-01T17:37:51.930Z,1.80
2017-12-01T17:40:18.714Z,1.67
2017-12-01T17:42:45.474Z,1.47
2017-12-01T17:45:12.304Z,2.47
2017-12-01T17:47:39.076Z,1.87
2017-12-01T17:50:05.878Z,3.03
2017-12-01T17:52:32.692Z,1.93
2017-12-01T17:54:59.486Z,1.90
2017-12-01T17:57:26.254Z,1.93
2017-12-01T17:59:53.056Z,2.10
2017-12-01T18:02:19.845Z,1.67
2017-12-01T18:04:46.637Z,1.70
2017-12-01T18:07:13.469Z,1.97
2017-12-01T18:09:40.268Z,1.90
2017-12-01T18:12:07.066Z,1.60
2017-12-01T18:14:33.872Z,2.50
2017-12-01T18:17:00.657Z,3.60
2017-12-01T18:19:27.453Z,4.33
2017-12-01T18:21:54.254Z,3.50
2017-12-01T18:24:21.072Z,2.27
2017-12-01T18:26:47.849Z,2.70
2017-12-01T18:29:14.691Z,2.50
2017-12-01T18:31:41.507Z,2.37
2017-12-01T18:34:09.111Z,3.43
2017-12-01T18:36:35.966Z,3.10
2017-12-01T18:39:02.774Z,2.63
2017-12-01T18:41:29.609Z,2.80
2017-12-01T18:43:56.427Z,2.53
2017-12-01T18:46:23.201Z,3.13
2017-12-01T18:48:49.992Z,2.00
2017-12-01T18:51:16.811Z,3.80
2017-12-01T18:53:44.547Z,4.43
2017-12-01T18:56:11.345Z,3.40
2017-12-01T18:58:38.154Z,3.33
2017-12-01T19:01:04.954Z,3.90
2017-12-01T19:03:31.731Z,3.10
2017-12-01T19:05:58.556Z,3.90
2017-12-01T19:08:25.315Z,5.23
2017-12-01T19:10:52.122Z,7.17
2017-12-01T19:13:18.952Z,6.60
2017-12-01T19:15:45.748Z,7.03
2017-12-01T19:18:12.561Z,6.70
2017-12-01T19:20:39.451Z,7.73
2017-12-01T19:23:06.235Z,6.53
2017-12-01T19:25:33.063Z,10.27
2017-12-01T19:27:59.883Z,7.27
2017-12-01T19:30:26.695Z,7.20
2017-12-01T19:32:53.537Z,4.03
2017-12-01T19:35:20.363Z,5.10
2017-12-01T19:37:47.146Z,4.83
2017-12-01T19:40:13.937Z,5.27
2017-12-01T19:42:40.747Z,5.70
2017-12-01T19:45:07.523Z,4.63
2017-12-01T19:47:34.314Z,5.47
2017-12-01T19:50:01.158Z,6.50
2017-12-01T19:52:27.939Z,6.03
2017-12-01T19:54:54.733Z,9.40
2017-12-01T19:57:21.561Z,5.87
2017-12-01T19:59:48.368Z,7.63
2017-12-01T20:02:15.162Z,6.30
2017-12-01T20:04:41.977Z,8.47
2017-12-01T20:07:08.751Z,8.17
2017-12-01T20:09:35.556Z,8.10
2017-12-01T20:12:02.400Z,8.40
2017-12-01T20:14:29.215Z,9.57
2017-12-01T20:16:56.034Z,9.30
2017-12-01T20:19:22.851Z,9.27
2017-12-01T20:21:49.660Z,11.30
2017-12-01T20:24:16.472Z,11.03
2017-12-01T20:26:43.275Z,11.07
2017-12-01T20:29:10.094Z,9.13
2017-12-01T20:31:36.897Z,10.70
2017-12-01T20:34:03.736Z,10.87
2017-12-01T20:36:30.521Z,10.83
2017-12-01T20:38:57.311Z,12.27
2017-12-01T20:41:24.277Z,10.93
2017-12-01T20:43:51.079Z,10.43
2017-12-01T20:46:17.869Z,11.30
2017-12-01T20:48:44.689Z,11.17
2017-12-01T20:51:11.582Z,11.20
2017-12-01T20:53:38.378Z,11.70
2017-12-01T20:56:05.206Z,7.90
2017-12-01T20:58:32.045Z,9.87
2017-12-01T21:00:58.845Z,9.27
2017-12-01T21:03:25.689Z,10.70
2017-12-01T21:05:52.514Z,8.40
2017-12-01T21:08:19.310Z,9.10
2017-12-01T21:10:46.135Z,10.70
2017-12-01T21:13:12.929Z,9.33
2017-12-01T21:15:39.723Z,9.60
2017-12-01T21:18:06.549Z,8.80
2017-12-01T21:20:33.395Z,11.53
2017-12-01T21:23:00.205Z,9.53
2017-12-01T21:25:27.039Z,9.33
2017-12-01T21:27:53.820Z,9.90
2017-12-01T21:30:20.630Z,9.80
2017-12-01T21:32:47.470Z,10.10
2017-12-01T21:35:14.313Z,9.70
2017-12-01T21:37:41.416Z,10.07
2017-12-01T21:40:08.295Z,9.87
2017-12-01T21:42:35.093Z,9.50
2017-12-01T21:45:01.910Z,9.13
2017-12-01T21:47:28.753Z,9.20
2017-12-01T21:49:55.531Z,10.93
2017-12-01T21:52:22.316Z,10.57
2017-12-01T21:54:49.142Z,10.27
2017-12-01T21:57:15.976Z,10.30
2017-12-01T21:59:42.730Z,9.50
2017-12-01T22:02:09.511Z,10.77
2017-12-01T22:04:36.283Z,8.90
2017-12-01T22:07:03.113Z,10.23
2017-12-01T22:09:29.916Z,11.30
2017-12-01T22:11:56.681Z,10.00
2017-12-01T22:14:23.462Z,12.80
2017-12-01T22:16:50.308Z,10.63
2017-12-01T22:19:17.095Z,12.70
2017-12-01T22:21:43.905Z,12.47
2017-12-01T22:24:10.754Z,11.77
2017-12-01T22:26:37.566Z,11.63
2017-12-01T22:29:04.320Z,12.50
2017-12-01T22:31:31.150Z,12.90
2017-12-01T22:33:57.976Z,12.63
2017-12-01T22:36:24.762Z,12.67
2017-12-01T22:38:51.614Z,13.57
2017-12-01T22:41:18.354Z,14.93
2017-12-01T22:43:45.161Z,10.90
2017-12-01T22:46:11.970Z,12.87
2017-12-01T22:48:38.758Z,13.80
2017-12-01T22:51:05.564Z,11.30
2017-12-01T22:53:32.378Z,10.20
2017-12-01T22:55:59.214Z,10.87
2017-12-01T22:58:25.968Z,11.43
2017-12-01T23:00:52.782Z,11.37
2017-12-01T23:03:19.577Z,13.43
2017-12-01T23:05:46.342Z,11.00
2017-12-01T23:08:13.157Z,11.10
